createdAt,value
2023-03-06T00:00:57.245Z,0.80
2023-03-06T00:03:27.740Z,0.70
2023-03-06T00:05:57.238Z,0.88
2023-03-06T00:08:25.552Z,0.80
2023-03-06T00:10:52.098Z,2.03
2023-03-06T00:13:19.912Z,1.77
2023-03-06T00:15:47.644Z,1.05
2023-03-06T00:18:14.595Z,0.80
2023-03-06T00:20:43.050Z,0.88
2023-03-06T00:23:11.087Z,0.70
2023-03-06T00:25:38.787Z,0.95
2023-03-06T00:28:06.465Z,0.80
2023-03-06T00:30:33.318Z,0.82
2023-03-06T00:32:59.934Z,0.80
2023-03-06T00:35:26.598Z,0.80
2023-03-06T00:37:53.237Z,1.40
2023-03-06T00:40:21.461Z,0.80
2023-03-06T00:42:48.157Z,0.80
2023-03-06T00:45:14.985Z,1.27
2023-03-06T00:47:41.726Z,1.30
2023-03-06T00:50:09.132Z,0.75
2023-03-06T00:52:36.101Z,0.80
2023-03-06T00:55:02.769Z,0.80
2023-03-06T00:57:30.324Z,1.08
2023-03-06T00:59:57.344Z,1.33
2023-03-06T01:02:24.110Z,0.80
2023-03-06T01:04:51.256Z,0.77
2023-03-06T01:07:17.889Z,0.93
2023-03-06T01:09:44.474Z,0.80
2023-03-06T01:12:11.185Z,0.80
2023-03-06T01:14:38.809Z,1.25
2023-03-06T01:17:05.477Z,1.00
2023-03-06T01:19:32.055Z,1.20
2023-03-06T01:21:58.635Z,1.10
2023-03-06T01:24:25.904Z,0.90
2023-03-06T01:26:56.253Z,0.70
2023-03-06T01:29:23.069Z,0.82
2023-03-06T01:31:49.671Z,0.60
2023-03-06T01:34:16.368Z,1.27
2023-03-06T01:36:42.943Z,0.70
2023-03-06T01:39:10.255Z,1.58
2023-03-06T01:41:37.024Z,1.05
2023-03-06T01:44:03.788Z,1.50
2023-03-06T01:46:32.526Z,0.85
2023-03-06T01:49:11.696Z,0.70
2023-03-06T01:51:42.099Z,0.68
2023-03-06T01:54:22.721Z,1.65
2023-03-06T01:56:54.441Z,0.90
2023-03-06T01:59:22.399Z,1.15
2023-03-06T02:01:51.097Z,0.93
2023-03-06T02:04:18.336Z,1.02
2023-03-06T02:06:45.415Z,0.90
2023-03-06T02:09:13.465Z,0.70
2023-03-06T02:11:43.983Z,0.80
2023-03-06T02:14:16.794Z,0.80
2023-03-06T02:16:44.296Z,0.63
2023-03-06T02:19:32.489Z,0.90
2023-03-06T02:21:59.549Z,0.70
2023-03-06T02:24:42.216Z,0.70
2023-03-06T02:27:12.422Z,0.63
2023-03-06T02:29:39.147Z,0.63
2023-03-06T02:32:05.990Z,0.93
2023-03-06T02:34:48.572Z,0.85
2023-03-06T02:37:15.287Z,0.65
2023-03-06T02:39:46.942Z,0.80
2023-03-06T02:42:22.972Z,0.68
2023-03-06T02:44:51.261Z,0.93
2023-03-06T02:47:17.863Z,0.80
2023-03-06T02:49:44.541Z,1.75
2023-03-06T02:52:11.116Z,0.80
2023-03-06T02:54:39.232Z,2.15
2023-03-06T02:57:06.746Z,1.02
2023-03-06T02:59:34.067Z,1.58
2023-03-06T03:02:01.665Z,1.00
2023-03-06T03:04:28.846Z,0.70
2023-03-06T03:06:56.496Z,0.70
2023-03-06T03:09:24.712Z,1.77
2023-03-06T03:11:51.286Z,0.80
2023-03-06T03:14:17.971Z,0.60
2023-03-06T03:16:46.309Z,0.70
2023-03-06T03:19:13.129Z,0.80
2023-03-06T03:21:40.675Z,0.85
2023-03-06T03:24:07.929Z,0.73
2023-03-06T03:26:34.590Z,1.00
2023-03-06T03:29:07.604Z,0.77
2023-03-06T03:31:34.456Z,1.00
2023-03-06T03:34:02.477Z,0.90
2023-03-06T03:36:32.195Z,1.00
2023-03-06T03:39:00.249Z,1.58
2023-03-06T03:41:27.099Z,1.20
2023-03-06T03:43:53.784Z,5.97
2023-03-06T03:46:21.575Z,1.60
2023-03-06T03:48:50.141Z,2.05
2023-03-06T03:51:17.016Z,3.15
2023-03-06T03:53:49.255Z,0.98
2023-03-06T03:56:19.614Z,1.02
2023-03-06T03:58:54.736Z,1.52
2023-03-06T04:01:22.445Z,0.82
2023-03-06T04:03:49.072Z,2.40
2023-03-06T04:06:17.289Z,1.02
2023-03-06T04:08:44.372Z,1.40
2023-03-06T04:11:11.345Z,3.60
2023-03-06T04:13:38.060Z,0.75
2023-03-06T04:16:06.016Z,3.85
2023-03-06T04:18:34.028Z,1.02
2023-03-06T04:21:04.473Z,1.38
2023-03-06T04:23:31.495Z,1.98
2023-03-06T04:25:58.250Z,1.05
2023-03-06T04:28:25.481Z,0.60
2023-03-06T04:30:52.401Z,0.80
2023-03-06T04:33:20.422Z,0.80
2023-03-06T04:35:48.437Z,1.50
2023-03-06T04:38:20.473Z,0.97
2023-03-06T04:40:49.761Z,0.90
2023-03-06T04:43:16.762Z,0.73
2023-03-06T04:45:43.339Z,2.30
2023-03-06T04:48:13.182Z,2.33
2023-03-06T04:50:39.853Z,1.85
2023-03-06T04:53:06.632Z,0.82
2023-03-06T04:55:33.201Z,1.85
2023-03-06T04:57:59.790Z,1.85
2023-03-06T05:00:30.543Z,0.70
2023-03-06T05:02:59.449Z,0.75
2023-03-06T05:05:26.392Z,1.05
2023-03-06T05:07:53.333Z,0.70
2023-03-06T05:10:20.722Z,0.93
2023-03-06T05:12:47.417Z,0.80
2023-03-06T05:15:14.996Z,2.30
2023-03-06T05:17:42.117Z,2.42
2023-03-06T05:20:11.071Z,0.90
2023-03-06T05:22:37.944Z,1.40
2023-03-06T05:25:05.340Z,2.70
2023-03-06T05:27:32.390Z,2.63
2023-03-06T05:29:59.233Z,0.73
2023-03-06T05:32:25.925Z,3.05
2023-03-06T05:34:53.317Z,1.25
2023-03-06T05:37:20.222Z,0.80
2023-03-06T05:39:46.970Z,2.13
2023-03-06T05:42:13.684Z,1.85
2023-03-06T05:44:41.742Z,1.90
2023-03-06T05:47:09.143Z,3.63
2023-03-06T05:49:36.640Z,1.35
2023-03-06T05:52:04.563Z,1.30
2023-03-06T05:54:32.722Z,1.08
2023-03-06T05:56:59.548Z,1.45
2023-03-06T05:59:28.414Z,0.82
2023-03-06T06:01:56.127Z,1.88
2023-03-06T06:04:24.366Z,1.60
2023-03-06T06:06:53.668Z,1.30
2023-03-06T06:09:22.460Z,1.80
2023-03-06T06:11:57.366Z,3.85
2023-03-06T06:14:24.303Z,1.75
2023-03-06T06:16:51.465Z,0.85
2023-03-06T06:19:20.813Z,1.23
2023-03-06T06:21:49.871Z,1.23
2023-03-06T06:24:19.088Z,3.13
2023-03-06T06:26:46.169Z,2.63
2023-03-06T06:29:13.648Z,2.63
2023-03-06T06:31:40.637Z,1.00
2023-03-06T06:34:10.196Z,0.98
2023-03-06T06:36:37.528Z,1.20
2023-03-06T06:39:04.996Z,1.17
2023-03-06T06:42:00.075Z,2.42
2023-03-06T06:44:19.999Z,0.93
2023-03-06T06:47:21.210Z,0.80
2023-03-06T06:49:34.394Z,1.00
2023-03-06T06:52:01.178Z,1.00
2023-03-06T06:54:28.306Z,2.10
2023-03-06T06:56:54.921Z,2.28
2023-03-06T06:59:23.652Z,1.67
2023-03-06T07:01:51.860Z,1.48
2023-03-06T07:04:19.231Z,3.85
2023-03-06T07:06:46.253Z,0.98
2023-03-06T07:09:13.982Z,1.35
2023-03-06T07:11:41.123Z,3.33
2023-03-06T07:14:08.211Z,1.73
2023-03-06T07:16:34.957Z,3.30
2023-03-06T07:19:01.708Z,3.88
2023-03-06T07:21:28.319Z,0.95
2023-03-06T07:23:57.248Z,4.13
2023-03-06T07:26:25.137Z,4.72
2023-03-06T07:28:53.660Z,3.55
2023-03-06T07:31:22.405Z,2.85
2023-03-06T07:33:50.666Z,1.00
2023-03-06T07:36:17.800Z,2.20
2023-03-06T07:38:44.674Z,1.25
2023-03-06T07:41:13.741Z,2.58
2023-03-06T07:43:42.055Z,1.00
2023-03-06T07:46:09.947Z,0.98
2023-03-06T07:48:37.657Z,2.00
2023-03-06T07:51:07.465Z,1.48
2023-03-06T07:53:34.997Z,3.92
2023-03-06T07:56:08.532Z,1.53
2023-03-06T07:58:36.601Z,1.65
2023-03-06T08:01:08.487Z,1.63
2023-03-06T08:03:35.479Z,1.73
2023-03-06T08:06:23.389Z,2.05
2023-03-06T08:08:51.196Z,1.08
2023-03-06T08:11:20.246Z,1.65
2023-03-06T08:13:48.809Z,1.75
2023-03-06T08:16:17.276Z,1.60
2023-03-06T08:18:46.266Z,1.70
2023-03-06T08:21:24.924Z,1.10
2023-03-06T08:23:51.703Z,3.38
2023-03-06T08:26:21.203Z,0.95
2023-03-06T08:28:47.862Z,1.05
2023-03-06T08:31:27.514Z,1.35
2023-03-06T08:33:55.552Z,2.10
2023-03-06T08:36:22.441Z,1.30
2023-03-06T08:38:49.222Z,3.17
2023-03-06T08:41:16.026Z,1.35
2023-03-06T08:43:43.178Z,5.03
2023-03-06T08:46:11.219Z,3.97
2023-03-06T08:48:38.528Z,2.40
2023-03-06T08:51:05.522Z,0.70
2023-03-06T08:53:42.768Z,1.00
2023-03-06T08:56:18.706Z,1.98
2023-03-06T08:58:46.243Z,1.00
2023-03-06T09:01:15.065Z,0.88
2023-03-06T09:03:42.269Z,2.30
2023-03-06T09:06:08.957Z,4.22
2023-03-06T09:08:35.598Z,2.72
2023-03-06T09:11:02.162Z,2.67
2023-03-06T09:13:28.816Z,2.08
2023-03-06T09:15:55.406Z,1.95
2023-03-06T09:18:21.980Z,1.35
2023-03-06T09:20:48.537Z,2.42
2023-03-06T09:23:15.132Z,5.55
2023-03-06T09:25:41.678Z,2.33
2023-03-06T09:28:11.784Z,0.90
2023-03-06T09:30:40.516Z,2.05
2023-03-06T09:33:07.296Z,1.02
2023-03-06T09:35:33.953Z,0.93
2023-03-06T09:38:00.537Z,3.80
2023-03-06T09:40:58.284Z,1.85
2023-03-06T09:43:30.762Z,2.95
2023-03-06T09:45:59.026Z,2.80
2023-03-06T09:48:45.742Z,2.63
2023-03-06T09:51:19.889Z,1.98
2023-03-06T09:54:02.690Z,1.05
2023-03-06T09:56:32.767Z,3.85
2023-03-06T09:59:13.379Z,1.58
2023-03-06T10:01:44.134Z,1.20
2023-03-06T10:04:35.961Z,6.15
2023-03-06T10:07:24.001Z,1.88
2023-03-06T10:10:21.994Z,0.80
2023-03-06T10:13:06.374Z,1.10
2023-03-06T10:15:36.194Z,2.67
2023-03-06T10:18:04.384Z,3.88
2023-03-06T10:20:40.933Z,1.63
2023-03-06T10:23:24.881Z,0.95
2023-03-06T10:26:01.594Z,2.17
2023-03-06T10:28:48.067Z,3.42
2023-03-06T10:31:24.906Z,1.20
2023-03-06T10:33:59.241Z,1.25
2023-03-06T10:36:28.010Z,2.05
2023-03-06T10:38:57.288Z,0.65
2023-03-06T10:41:25.846Z,1.15
2023-03-06T10:44:04.787Z,1.20
2023-03-06T10:46:37.434Z,1.15
2023-03-06T10:49:25.954Z,1.95
2023-03-06T10:51:59.671Z,1.13
2023-03-06T10:54:27.490Z,0.80
2023-03-06T10:56:54.063Z,0.90
2023-03-06T10:59:25.148Z,2.65
2023-03-06T11:01:57.707Z,1.38
2023-03-06T11:04:26.440Z,0.80
2023-03-06T11:07:15.066Z,0.70
2023-03-06T11:09:59.487Z,2.50
2023-03-06T11:12:37.041Z,1.60
2023-03-06T11:15:06.617Z,0.80
2023-03-06T11:17:37.063Z,0.70
2023-03-06T11:20:21.604Z,0.77
2023-03-06T11:22:56.149Z,0.70
2023-03-06T11:25:29.268Z,1.15
2023-03-06T11:28:02.196Z,0.95
2023-03-06T11:30:41.841Z,1.20
2023-03-06T11:33:17.645Z,1.27
2023-03-06T11:35:52.048Z,2.63
2023-03-06T11:38:30.851Z,0.70
2023-03-06T11:41:05.793Z,0.93
2023-03-06T11:43:52.885Z,0.85
2023-03-06T11:46:34.320Z,2.80
2023-03-06T11:49:16.836Z,1.00
2023-03-06T11:51:51.448Z,0.90
2023-03-06T11:54:18.212Z,2.42
2023-03-06T11:57:02.233Z,1.85
2023-03-06T11:59:57.875Z,1.92
2023-03-06T12:02:45.049Z,1.52
2023-03-06T12:05:45.932Z,3.08
2023-03-06T12:08:28.352Z,0.80
2023-03-06T12:11:02.427Z,0.88
2023-03-06T12:13:39.528Z,0.60
2023-03-06T12:16:07.194Z,0.65
2023-03-06T12:18:55.674Z,0.85
2023-03-06T12:21:57.667Z,1.27
2023-03-06T12:24:49.076Z,0.80
2023-03-06T12:27:34.560Z,2.15
2023-03-06T12:30:29.057Z,2.28
2023-03-06T12:33:00.788Z,0.88
2023-03-06T12:35:30.334Z,0.80
2023-03-06T12:38:08.780Z,0.93
2023-03-06T12:40:44.573Z,0.93
2023-03-06T12:43:48.276Z,4.43
2023-03-06T12:46:26.329Z,1.20
2023-03-06T12:49:03.640Z,2.38
2023-03-06T12:51:32.654Z,1.30
2023-03-06T12:54:01.948Z,0.95
2023-03-06T12:56:30.897Z,1.05
2023-03-06T12:59:02.252Z,0.93
2023-03-06T13:02:00.745Z,3.33
2023-03-06T13:04:41.775Z,1.67
2023-03-06T13:07:19.554Z,1.20
2023-03-06T13:10:07.359Z,3.58
2023-03-06T13:12:56.741Z,1.73
2023-03-06T13:15:29.539Z,1.92
2023-03-06T13:17:56.918Z,1.00
2023-03-06T13:20:42.811Z,1.40
2023-03-06T13:23:31.450Z,1.92
2023-03-06T13:26:08.247Z,2.60
2023-03-06T13:28:50.271Z,1.75
2023-03-06T13:31:32.247Z,1.10
2023-03-06T13:34:06.166Z,2.40
2023-03-06T13:36:34.739Z,1.30
2023-03-06T13:39:09.269Z,1.63
2023-03-06T13:41:52.496Z,1.08
2023-03-06T13:44:24.270Z,1.48
2023-03-06T13:47:01.158Z,1.90
2023-03-06T13:49:29.296Z,0.85
2023-03-06T13:52:04.861Z,1.60
2023-03-06T13:55:10.169Z,0.90
2023-03-06T13:58:12.318Z,2.45
2023-03-06T14:01:04.174Z,4.00
2023-03-06T14:04:14.704Z,1.52
2023-03-06T14:06:50.472Z,2.72
2023-03-06T14:09:32.244Z,4.28
2023-03-06T14:12:08.501Z,0.93
2023-03-06T14:14:41.681Z,2.37
2023-03-06T14:17:20.492Z,1.17
2023-03-06T14:19:47.620Z,1.42
2023-03-06T14:22:21.009Z,0.80
2023-03-06T14:25:00.888Z,1.13
2023-03-06T14:27:41.608Z,1.53
2023-03-06T14:30:12.881Z,0.98
2023-03-06T14:32:40.579Z,2.35
2023-03-06T14:35:18.915Z,1.55
2023-03-06T14:37:50.105Z,1.58
2023-03-06T14:40:26.203Z,0.80
2023-03-06T14:43:29.230Z,2.40
2023-03-06T14:46:01.679Z,1.50
2023-03-06T14:48:44.129Z,2.15
2023-03-06T14:51:25.458Z,1.33
2023-03-06T14:53:54.548Z,2.10
2023-03-06T14:56:25.662Z,2.72
2023-03-06T14:58:55.067Z,1.92
2023-03-06T15:01:28.470Z,2.45
2023-03-06T15:03:59.839Z,1.08
2023-03-06T15:06:42.887Z,1.90
2023-03-06T15:09:25.297Z,1.13
2023-03-06T15:11:53.068Z,1.00
2023-03-06T15:14:27.115Z,1.05
2023-03-06T15:16:53.755Z,1.73
2023-03-06T15:19:22.702Z,2.83
2023-03-06T15:21:51.861Z,3.78
2023-03-06T15:24:34.464Z,0.80
2023-03-06T15:27:06.954Z,2.05
2023-03-06T15:29:38.778Z,2.15
2023-03-06T15:32:34.288Z,1.50
2023-03-06T15:35:22.795Z,3.13
2023-03-06T15:37:49.673Z,2.25
2023-03-06T15:40:19.062Z,1.45
2023-03-06T15:42:46.404Z,1.02
2023-03-06T15:45:22.042Z,2.00
2023-03-06T15:47:50.857Z,3.80
2023-03-06T15:50:25.346Z,3.13
2023-03-06T15:52:52.236Z,5.13
2023-03-06T15:55:25.909Z,1.52
2023-03-06T15:58:00.946Z,2.40
2023-03-06T16:00:30.834Z,4.25
2023-03-06T16:02:58.665Z,0.70
2023-03-06T16:05:26.887Z,1.90
2023-03-06T16:07:53.856Z,2.33
2023-03-06T16:10:22.892Z,2.57
2023-03-06T16:12:56.469Z,4.57
2023-03-06T16:15:28.818Z,2.17
2023-03-06T16:17:59.901Z,2.47
2023-03-06T16:20:28.864Z,2.17
2023-03-06T16:22:56.174Z,1.80
2023-03-06T16:25:24.940Z,4.47
2023-03-06T16:27:55.534Z,2.78
2023-03-06T16:30:23.425Z,1.30
2023-03-06T16:32:50.260Z,3.60
2023-03-06T16:35:18.402Z,4.67
2023-03-06T16:37:48.169Z,3.72
2023-03-06T16:40:26.190Z,5.32
2023-03-06T16:42:55.022Z,3.03
2023-03-06T16:45:22.834Z,2.95
2023-03-06T16:47:50.142Z,4.23
2023-03-06T16:50:28.261Z,5.70
2023-03-06T16:52:56.404Z,3.63
2023-03-06T16:55:25.340Z,4.90
2023-03-06T16:57:52.402Z,8.57
2023-03-06T17:00:20.435Z,6.80
2023-03-06T17:02:52.737Z,3.00
2023-03-06T17:05:19.682Z,8.65
2023-03-06T17:07:46.653Z,8.73
2023-03-06T17:10:16.253Z,5.50
2023-03-06T17:12:43.463Z,9.17
2023-03-06T17:15:11.376Z,8.75
2023-03-06T17:17:38.161Z,7.68
2023-03-06T17:20:11.966Z,9.35
2023-03-06T17:22:38.860Z,9.50
2023-03-06T17:25:06.844Z,13.50
2023-03-06T17:27:34.470Z,8.20
2023-03-06T17:30:01.568Z,8.98
2023-03-06T17:32:28.815Z,6.63
2023-03-06T17:34:55.413Z,9.90
2023-03-06T17:37:22.121Z,6.10
2023-03-06T17:39:49.709Z,10.13
2023-03-06T17:42:16.696Z,13.50
2023-03-06T17:44:43.477Z,14.20
2023-03-06T17:47:10.527Z,14.18
2023-03-06T17:49:37.180Z,14.30
2023-03-06T17:52:05.691Z,16.75
2023-03-06T17:54:33.355Z,16.67
2023-03-06T17:57:03.333Z,16.65
2023-03-06T17:59:31.962Z,21.55
2023-03-06T18:01:59.402Z,27.03
2023-03-06T18:04:26.875Z,19.95
2023-03-06T18:06:53.514Z,19.48
2023-03-06T18:09:20.392Z,31.13
2023-03-06T18:11:47.016Z,27.63
2023-03-06T18:14:13.685Z,18.83
2023-03-06T18:16:40.381Z,24.52
2023-03-06T18:19:07.044Z,16.52
2023-03-06T18:21:33.634Z,17.98
2023-03-06T18:24:00.235Z,16.65
2023-03-06T18:26:29.134Z,18.00
2023-03-06T18:28:58.328Z,14.20
2023-03-06T18:31:30.488Z,17.40
2023-03-06T18:34:01.173Z,14.10
2023-03-06T18:36:30.668Z,13.15
2023-03-06T18:38:58.316Z,8.60
2023-03-06T18:41:25.009Z,11.20
2023-03-06T18:43:56.610Z,19.08
2023-03-06T18:46:30.429Z,9.63
2023-03-06T18:48:57.037Z,7.78
2023-03-06T18:51:23.614Z,11.07
2023-03-06T18:53:50.242Z,9.32
2023-03-06T18:56:19.228Z,8.13
2023-03-06T18:58:46.730Z,7.47
2023-03-06T19:01:13.425Z,13.88
2023-03-06T19:03:40.131Z,15.07
2023-03-06T19:06:09.247Z,18.23
2023-03-06T19:08:37.222Z,17.02
2023-03-06T19:11:06.622Z,15.55
2023-03-06T19:13:33.398Z,24.15
2023-03-06T19:16:00.202Z,17.73
2023-03-06T19:18:28.939Z,11.63
2023-03-06T19:21:06.400Z,13.90
2023-03-06T19:23:33.130Z,11.27
2023-03-06T19:26:00.330Z,21.02
2023-03-06T19:28:27.411Z,10.23
2023-03-06T19:30:54.000Z,12.00
2023-03-06T19:33:20.596Z,8.70
2023-03-06T19:35:47.892Z,9.18
2023-03-06T19:38:15.582Z,8.63
2023-03-06T19:40:49.398Z,11.97
2023-03-06T19:43:16.197Z,11.30
2023-03-06T19:45:44.151Z,14.73
2023-03-06T19:48:12.487Z,11.05
2023-03-06T19:50:40.604Z,13.50
2023-03-06T19:53:08.385Z,11.60
2023-03-06T19:55:35.257Z,9.57
2023-03-06T19:58:02.041Z,7.35
2023-03-06T20:00:28.883Z,7.88
2023-03-06T20:02:58.891Z,7.45
2023-03-06T20:05:25.479Z,5.47
2023-03-06T20:07:52.239Z,5.93
2023-03-06T20:10:19.069Z,4.82
2023-03-06T20:12:45.774Z,6.00
2023-03-06T20:15:12.996Z,4.40
2023-03-06T20:17:42.482Z,3.90
2023-03-06T20:20:09.914Z,4.65
2023-03-06T20:22:36.691Z,7.00
2023-03-06T20:25:03.742Z,3.72
2023-03-06T20:27:30.419Z,4.50
2023-03-06T20:29:57.233Z,6.40
2023-03-06T20:32:23.984Z,5.60
2023-03-06T20:34:50.740Z,6.00
2023-03-06T20:37:17.417Z,6.07
2023-03-06T20:39:44.084Z,3.80
2023-03-06T20:42:10.743Z,4.30
2023-03-06T20:44:37.406Z,4.90
2023-03-06T20:47:04.194Z,3.42
2023-03-06T20:49:33.359Z,4.50
2023-03-06T20:52:00.052Z,5.22
2023-03-06T20:54:27.086Z,5.70
2023-03-06T20:56:53.728Z,9.40
2023-03-06T20:59:23.699Z,7.00
2023-03-06T21:01:50.392Z,4.70
2023-03-06T21:04:17.314Z,7.88
2023-03-06T21:06:46.757Z,6.80
2023-03-06T21:09:16.080Z,13.43
2023-03-06T21:11:42.860Z,11.50
2023-03-06T21:14:09.551Z,4.53
2023-03-06T21:16:36.619Z,4.07
2023-03-06T21:19:03.416Z,2.13
2023-03-06T21:21:33.251Z,1.83
2023-03-06T21:24:00.716Z,3.13
2023-03-06T21:26:30.431Z,6.05
2023-03-06T21:29:00.655Z,4.70
2023-03-06T21:31:28.691Z,4.37
2023-03-06T21:33:55.782Z,6.22
2023-03-06T21:36:23.295Z,5.75
2023-03-06T21:38:51.715Z,7.88
2023-03-06T21:41:21.683Z,4.05
2023-03-06T21:43:48.313Z,2.50
2023-03-06T21:46:15.048Z,1.73
2023-03-06T21:48:41.792Z,3.35
2023-03-06T21:51:13.643Z,3.78
2023-03-06T21:53:44.171Z,2.55
2023-03-06T21:56:12.211Z,3.20
2023-03-06T21:58:38.896Z,3.53
2023-03-06T22:01:13.556Z,5.03
2023-03-06T22:03:40.404Z,1.77
2023-03-06T22:06:18.255Z,2.15
2023-03-06T22:08:45.392Z,2.60
2023-03-06T22:11:17.065Z,2.60
2023-03-06T22:13:44.732Z,1.98
2023-03-06T22:16:11.818Z,4.95
2023-03-06T22:18:38.902Z,2.65
2023-03-06T22:21:13.049Z,4.13
2023-03-06T22:23:42.514Z,7.38
2023-03-06T22:26:12.670Z,3.60
2023-03-06T22:28:40.206Z,2.08
2023-03-06T22:31:09.453Z,5.25
2023-03-06T22:33:36.832Z,2.90
2023-03-06T22:36:07.217Z,3.88
2023-03-06T22:38:35.687Z,5.10
2023-03-06T22:41:02.419Z,3.33
2023-03-06T22:43:29.323Z,2.17
2023-03-06T22:46:08.407Z,7.90
2023-03-06T22:48:35.143Z,3.97
2023-03-06T22:51:09.985Z,8.02
2023-03-06T22:53:37.272Z,8.35
2023-03-06T22:56:06.157Z,4.72
2023-03-06T22:58:36.760Z,8.10
2023-03-06T23:01:06.029Z,5.10
2023-03-06T23:03:32.850Z,6.18
2023-03-06T23:05:59.423Z,6.05
2023-03-06T23:08:26.072Z,7.38
2023-03-06T23:10:52.607Z,3.37
2023-03-06T23:13:38.495Z,5.43
2023-03-06T23:16:24.096Z,4.07
2023-03-06T23:19:09.585Z,4.15
2023-03-06T23:21:55.196Z,3.92
2023-03-06T23:24:40.725Z,3.63
2023-03-06T23:27:07.497Z,3.92
2023-03-06T23:29:34.049Z,3.85
2023-03-06T23:32:01.474Z,5.00
2023-03-06T23:34:28.192Z,4.07
2023-03-06T23:36:54.835Z,3.07
2023-03-06T23:39:22.090Z,3.78
2023-03-06T23:41:48.853Z,2.45
2023-03-06T23:44:15.451Z,3.40
2023-03-06T23:46:42.517Z,3.15
2023-03-06T23:49:09.124Z,3.03
2023-03-06T23:51:36.024Z,5.07
2023-03-06T23:54:02.727Z,2.28
2023-03-06T23:56:29.427Z,4.70
2023-03-06T23:58:56.451Z,3.15
